createdAt,value
2023-03-08T00:01:50.581Z,38.92
2023-03-08T00:03:53.413Z,38.78
2023-03-08T00:05:55.021Z,38.96
2023-03-08T00:07:56.551Z,39.26
2023-03-08T00:09:59.675Z,38.83
2023-03-08T00:12:01.215Z,38.90
2023-03-08T00:14:02.918Z,38.77
2023-03-08T00:16:07.251Z,38.83
2023-03-08T00:18:10.155Z,39.15
2023-03-08T00:20:13.608Z,39.06
2023-03-08T00:22:15.096Z,38.98
2023-03-08T00:24:19.686Z,38.82
2023-03-08T00:26:21.281Z,38.96
2023-03-08T00:28:22.969Z,39.12
2023-03-08T00:30:24.713Z,38.74
2023-03-08T00:32:26.785Z,38.82
2023-03-08T00:34:29.715Z,38.73
2023-03-08T00:36:31.417Z,39.18
2023-03-08T00:38:36.536Z,39.15
2023-03-08T00:40:38.078Z,38.85
2023-03-08T00:42:39.708Z,38.91
2023-03-08T00:44:41.346Z,38.72
2023-03-08T00:46:42.937Z,38.69
2023-03-08T00:48:44.548Z,38.97
2023-03-08T00:50:48.007Z,38.99
2023-03-08T00:52:49.720Z,38.87
2023-03-08T00:54:51.267Z,38.82
2023-03-08T00:56:52.833Z,38.86
2023-03-08T00:58:54.360Z,38.88
2023-03-08T01:00:56.024Z,38.70
2023-03-08T01:02:58.365Z,38.88
2023-03-08T01:05:00.002Z,38.88
2023-03-08T01:07:02.984Z,38.78
2023-03-08T01:09:04.579Z,38.96
2023-03-08T01:11:06.163Z,38.97
2023-03-08T01:13:08.517Z,38.84
2023-03-08T01:15:10.886Z,39.09
2023-03-08T01:17:12.390Z,38.75
2023-03-08T01:19:13.933Z,39.08
2023-03-08T01:21:16.115Z,39.19
2023-03-08T01:23:18.999Z,39.26
2023-03-08T01:25:20.499Z,39.43
2023-03-08T01:27:22.070Z,39.38
2023-03-08T01:29:23.638Z,39.57
2023-03-08T01:31:26.854Z,39.45
2023-03-08T01:33:28.564Z,39.20
2023-03-08T01:35:30.176Z,39.19
2023-03-08T01:37:32.337Z,39.41
2023-03-08T01:39:35.263Z,39.17
2023-03-08T01:41:36.932Z,39.15
2023-03-08T01:43:39.481Z,39.32
2023-03-08T01:46:08.139Z,38.92
2023-03-08T01:48:09.757Z,39.25
2023-03-08T01:50:13.375Z,39.38
2023-03-08T01:52:18.606Z,39.60
2023-03-08T01:54:25.192Z,39.45
2023-03-08T01:56:28.464Z,39.72
2023-03-08T01:58:30.480Z,39.99
2023-03-08T02:00:32.206Z,40.17
2023-03-08T02:02:43.780Z,40.60
2023-03-08T02:04:48.338Z,40.38
2023-03-08T02:07:14.767Z,40.67
2023-03-08T02:09:29.066Z,40.28
2023-03-08T02:11:55.211Z,40.57
2023-03-08T02:14:00.573Z,40.19
2023-03-08T02:16:23.249Z,40.23
2023-03-08T02:18:38.450Z,40.06
2023-03-08T02:20:46.367Z,40.14
2023-03-08T02:22:59.928Z,40.33
2023-03-08T02:27:48.338Z,39.69
2023-03-08T02:29:56.419Z,39.95
2023-03-08T02:32:10.004Z,39.98
2023-03-08T02:34:15.998Z,40.21
2023-03-08T02:36:44.489Z,40.14
2023-03-08T02:39:05.819Z,39.98
2023-03-08T02:41:15.955Z,39.57
2023-03-08T02:45:38.879Z,39.89
2023-03-08T02:47:45.816Z,40.00
2023-03-08T02:49:50.227Z,39.90
2023-03-08T02:52:06.020Z,40.08
2023-03-08T02:54:16.943Z,39.75
2023-03-08T02:56:23.261Z,40.03
2023-03-08T02:58:33.308Z,40.27
2023-03-08T03:00:41.262Z,40.28
2023-03-08T03:02:57.908Z,40.17
2023-03-08T03:05:03.237Z,39.73
2023-03-08T03:07:18.379Z,39.63
2023-03-08T03:09:57.410Z,39.66
2023-03-08T03:12:02.344Z,39.96
2023-03-08T03:14:14.798Z,39.60
2023-03-08T03:16:35.562Z,39.88
2023-03-08T03:18:59.821Z,39.93
2023-03-08T03:21:17.091Z,40.02
2023-03-08T03:23:28.590Z,39.96
2023-03-08T03:27:55.604Z,40.18
2023-03-08T03:30:00.432Z,40.21
2023-03-08T03:32:10.114Z,40.18
2023-03-08T03:34:18.278Z,39.95
2023-03-08T03:36:30.549Z,40.27
2023-03-08T03:38:41.967Z,40.24
2023-03-08T03:40:53.950Z,39.92
2023-03-08T03:43:04.904Z,40.11
2023-03-08T03:45:22.229Z,40.21
2023-03-08T03:47:30.452Z,40.17
2023-03-08T03:49:37.406Z,40.32
2023-03-08T03:51:52.057Z,40.32
2023-03-08T03:53:57.126Z,40.37
2023-03-08T03:56:10.914Z,40.13
2023-03-08T03:58:20.938Z,40.28
2023-03-08T04:00:29.200Z,40.41
2023-03-08T04:02:34.364Z,40.53
2023-03-08T04:04:41.715Z,40.61
2023-03-08T04:06:54.683Z,40.22
2023-03-08T04:11:36.252Z,40.74
2023-03-08T04:13:51.615Z,40.67
2023-03-08T04:15:58.858Z,40.81
2023-03-08T04:18:05.373Z,40.91
2023-03-08T04:20:14.577Z,40.98
2023-03-08T04:22:19.621Z,40.58
2023-03-08T04:24:21.660Z,40.69
2023-03-08T04:26:32.322Z,40.94
2023-03-08T04:30:57.858Z,41.13
2023-03-08T04:33:05.354Z,41.20
2023-03-08T04:35:24.453Z,40.84
2023-03-08T04:40:18.675Z,41.15
2023-03-08T04:42:35.708Z,41.11
2023-03-08T04:47:13.032Z,41.08
2023-03-08T04:49:31.058Z,41.10
2023-03-08T04:51:54.315Z,41.28
2023-03-08T04:56:37.852Z,41.12
2023-03-08T04:58:54.372Z,41.29
2023-03-08T05:01:02.945Z,41.30
2023-03-08T05:03:08.775Z,41.19
2023-03-08T05:05:21.831Z,41.43
2023-03-08T05:07:35.250Z,41.79
2023-03-08T05:09:47.737Z,41.87
2023-03-08T05:29:58.022Z,42.83
2023-03-08T05:34:33.012Z,42.73
2023-03-08T05:36:38.059Z,42.80
2023-03-08T05:38:55.298Z,42.85
2023-03-08T05:44:52.108Z,42.80
2023-03-08T06:36:27.063Z,42.04
2023-03-08T06:45:30.199Z,42.24
2023-03-08T06:47:35.764Z,42.04
2023-03-08T06:49:56.456Z,41.93
2023-03-08T06:52:16.233Z,42.02
2023-03-08T06:54:28.062Z,42.20
2023-03-08T06:56:34.034Z,41.89
2023-03-08T06:58:48.164Z,41.64
2023-03-08T07:03:30.404Z,41.76
2023-03-08T07:05:32.767Z,41.81
2023-03-08T07:07:41.814Z,41.75
2023-03-08T07:09:48.536Z,41.81
2023-03-08T07:11:50.818Z,41.66
2023-03-08T07:13:56.781Z,41.72
2023-03-08T07:16:07.784Z,41.79
2023-03-08T07:18:16.012Z,41.73
2023-03-08T07:20:35.993Z,41.72
2023-03-08T07:22:52.616Z,42.30
2023-03-08T07:24:56.834Z,42.49
2023-03-08T07:27:03.625Z,43.00
2023-03-08T07:29:11.118Z,43.24
2023-03-08T07:31:17.779Z,43.87
2023-03-08T07:33:36.015Z,44.71
2023-03-08T07:35:53.972Z,45.21
2023-03-08T07:38:09.649Z,46.67
2023-03-08T07:40:18.167Z,48.08
2023-03-08T07:42:47.682Z,49.83
2023-03-08T07:45:03.291Z,50.43
2023-03-08T07:47:06.238Z,51.56
2023-03-08T07:49:07.816Z,52.73
2023-03-08T07:51:09.475Z,53.70
2023-03-08T07:53:12.408Z,53.43
2023-03-08T07:55:14.572Z,54.66
2023-03-08T07:57:16.222Z,54.11
2023-03-08T07:59:17.807Z,55.86
2023-03-08T08:01:19.377Z,56.31
2023-03-08T08:03:21.655Z,56.94
2023-03-08T08:05:23.439Z,56.52
2023-03-08T08:07:25.282Z,55.98
2023-03-08T08:09:28.317Z,56.33
2023-03-08T08:11:30.224Z,56.45
2023-03-08T08:13:31.854Z,56.45
2023-03-08T08:15:33.423Z,56.83
2023-03-08T08:17:35.025Z,57.40
2023-03-08T08:19:37.265Z,56.98
2023-03-08T08:21:38.806Z,56.94
2023-03-08T08:23:49.537Z,57.96
2023-03-08T08:25:52.722Z,58.21
2023-03-08T08:27:54.418Z,58.19
2023-03-08T08:29:55.990Z,58.43
2023-03-08T08:31:57.964Z,58.49
2023-03-08T08:34:00.296Z,58.38
2023-03-08T08:36:04.817Z,57.72
2023-03-08T08:38:06.462Z,58.25
2023-03-08T08:40:09.433Z,58.02
2023-03-08T08:42:12.429Z,58.84
2023-03-08T08:44:14.008Z,58.24
2023-03-08T08:46:16.436Z,58.35
2023-03-08T08:48:18.062Z,58.83
2023-03-08T08:50:19.943Z,58.93
2023-03-08T08:52:21.547Z,58.80
2023-03-08T08:54:23.235Z,59.15
2023-03-08T08:56:28.498Z,59.21
2023-03-08T08:58:37.581Z,59.14
2023-03-08T09:00:39.975Z,59.89
2023-03-08T09:02:41.585Z,59.43
2023-03-08T09:04:43.364Z,59.71
2023-03-08T09:06:44.972Z,59.86
2023-03-08T09:08:49.380Z,59.77
2023-03-08T09:10:50.967Z,60.07
2023-03-08T09:12:52.629Z,59.79
2023-03-08T09:14:56.041Z,60.06
2023-03-08T09:16:57.804Z,60.32
2023-03-08T09:19:01.432Z,61.01
2023-03-08T09:21:03.004Z,60.55
2023-03-08T09:23:04.605Z,60.52
2023-03-08T09:25:07.802Z,60.53
2023-03-08T09:27:09.398Z,60.72
2023-03-08T09:29:14.073Z,60.87
2023-03-08T09:31:18.463Z,60.84
2023-03-08T09:33:20.216Z,60.45
2023-03-08T09:35:21.939Z,60.33
2023-03-08T09:37:23.585Z,60.53
2023-03-08T09:39:25.511Z,61.36
2023-03-08T09:41:48.526Z,61.48
2023-03-08T09:44:11.291Z,61.43
2023-03-08T09:46:15.145Z,61.06
2023-03-08T09:48:22.311Z,61.18
2023-03-08T09:50:35.814Z,61.67
2023-03-08T09:52:40.008Z,61.30
2023-03-08T09:54:42.604Z,61.63
2023-03-08T09:56:47.100Z,61.76
2023-03-08T09:58:53.261Z,61.56
2023-03-08T10:01:01.721Z,61.59
2023-03-08T10:03:31.845Z,61.52
2023-03-08T10:05:40.359Z,61.60
2023-03-08T10:07:51.201Z,61.86
2023-03-08T10:10:12.419Z,62.02
2023-03-08T10:12:23.203Z,61.87
2023-03-08T10:14:30.417Z,61.91
2023-03-08T10:16:35.493Z,61.65
2023-03-08T10:18:43.001Z,61.97
2023-03-08T10:20:45.386Z,61.83
2023-03-08T10:22:53.617Z,61.92
2023-03-08T10:25:00.819Z,61.20
2023-03-08T10:27:14.424Z,61.60
2023-03-08T10:29:16.001Z,61.80
2023-03-08T10:31:22.292Z,62.25
2023-03-08T10:33:27.106Z,61.88
2023-03-08T10:35:36.054Z,61.99
2023-03-08T10:37:37.754Z,62.13
2023-03-08T10:39:48.977Z,62.39
2023-03-08T10:41:54.154Z,62.33
2023-03-08T10:43:56.354Z,62.28
2023-03-08T10:45:59.908Z,62.70
2023-03-08T10:48:02.907Z,62.82
2023-03-08T10:50:11.878Z,62.99
2023-03-08T10:52:27.021Z,62.95
2023-03-08T10:54:29.103Z,62.98
2023-03-08T10:56:36.564Z,62.93
2023-03-08T10:58:39.588Z,63.15
2023-03-08T11:00:43.239Z,63.18
2023-03-08T11:02:45.062Z,63.27
2023-03-08T11:04:51.704Z,63.47
2023-03-08T11:06:53.763Z,63.11
2023-03-08T11:09:00.206Z,63.49
2023-03-08T11:11:07.217Z,63.74
2023-03-08T11:13:20.952Z,63.88
2023-03-08T11:15:22.693Z,63.59
2023-03-08T11:17:28.389Z,64.16
2023-03-08T11:19:38.673Z,64.11
2023-03-08T11:21:52.412Z,64.12
2023-03-08T11:24:04.242Z,64.31
2023-03-08T11:26:17.893Z,64.36
2023-03-08T11:28:32.365Z,64.19
2023-03-08T11:30:45.476Z,64.94
2023-03-08T11:33:02.273Z,64.82
2023-03-08T11:35:15.764Z,64.36
2023-03-08T11:37:29.426Z,64.85
2023-03-08T11:39:35.058Z,64.53
2023-03-08T11:41:44.326Z,64.40
2023-03-08T11:44:09.397Z,64.31
2023-03-08T11:46:19.580Z,64.36
2023-03-08T11:48:48.632Z,64.99
2023-03-08T11:50:54.266Z,65.11
2023-03-08T11:53:10.591Z,65.16
2023-03-08T11:55:35.571Z,64.65
2023-03-08T11:57:42.553Z,64.79
2023-03-08T11:59:48.029Z,65.28
2023-03-08T12:01:54.831Z,65.54
2023-03-08T12:04:04.433Z,65.25
2023-03-08T12:06:26.534Z,65.39
2023-03-08T12:08:35.099Z,65.32
2023-03-08T12:10:45.638Z,65.04
2023-03-08T12:12:53.307Z,65.28
2023-03-08T12:14:59.275Z,65.68
2023-03-08T12:17:07.302Z,65.92
2023-03-08T12:19:20.959Z,65.53
2023-03-08T12:21:34.922Z,65.79
2023-03-08T12:23:45.453Z,65.83
2023-03-08T12:25:52.295Z,65.46
2023-03-08T12:27:57.989Z,65.97
2023-03-08T12:30:11.557Z,65.93
2023-03-08T12:32:14.390Z,65.87
2023-03-08T12:34:27.353Z,66.17
2023-03-08T12:36:39.880Z,66.33
2023-03-08T12:38:43.082Z,66.05
2023-03-08T12:40:49.509Z,66.41
2023-03-08T12:42:51.180Z,66.43
2023-03-08T12:44:52.898Z,65.74
2023-03-08T12:47:03.340Z,66.42
2023-03-08T12:49:19.750Z,66.64
2023-03-08T12:51:24.873Z,66.22
2023-03-08T12:53:35.474Z,66.70
2023-03-08T12:55:37.045Z,66.70
2023-03-08T12:57:47.846Z,66.97
2023-03-08T12:59:56.830Z,66.63
2023-03-08T13:02:21.473Z,66.85
2023-03-08T13:04:39.712Z,67.24
2023-03-08T13:07:19.728Z,66.89
2023-03-08T13:09:26.087Z,67.28
2023-03-08T13:11:39.012Z,67.13
2023-03-08T13:13:50.484Z,67.14
2023-03-08T13:16:05.187Z,67.01
2023-03-08T13:18:14.996Z,66.66
2023-03-08T13:20:19.623Z,66.92
2023-03-08T13:22:25.612Z,67.06
2023-03-08T13:24:38.841Z,66.91
2023-03-08T13:26:57.234Z,66.85
2023-03-08T13:29:00.734Z,67.25
2023-03-08T13:31:03.951Z,67.08
2023-03-08T13:33:08.349Z,67.14
2023-03-08T13:35:15.510Z,67.22
2023-03-08T13:37:21.669Z,66.90
2023-03-08T13:39:25.711Z,66.86
2023-03-08T13:41:35.412Z,67.06
2023-03-08T13:43:37.039Z,67.02
2023-03-08T13:45:40.050Z,67.15
2023-03-08T13:47:44.225Z,67.21
2023-03-08T13:49:46.322Z,69.36
2023-03-08T13:51:50.715Z,69.88
2023-03-08T13:53:53.224Z,71.78
2023-03-08T13:55:57.546Z,70.41
2023-03-08T13:57:59.635Z,70.48
2023-03-08T14:00:20.039Z,70.32
2023-03-08T14:02:25.354Z,70.77
2023-03-08T14:04:29.182Z,71.24
2023-03-08T14:06:32.448Z,70.70
2023-03-08T14:08:34.165Z,70.96
2023-03-08T14:10:38.675Z,70.69
2023-03-08T14:12:40.486Z,70.75
2023-03-08T14:14:46.789Z,70.87
2023-03-08T14:16:52.783Z,70.91
2023-03-08T14:18:56.701Z,70.40
2023-03-08T14:21:14.243Z,70.77
2023-03-08T14:23:23.698Z,70.83
2023-03-08T14:25:30.695Z,71.35
2023-03-08T14:27:37.832Z,71.44
2023-03-08T14:29:40.670Z,71.45
2023-03-08T14:31:54.367Z,71.82
2023-03-08T14:33:59.343Z,71.58
2023-03-08T14:36:00.972Z,71.35
2023-03-08T14:38:03.809Z,71.58
2023-03-08T14:40:29.970Z,72.02
2023-03-08T14:42:40.356Z,72.93
2023-03-08T14:44:42.204Z,73.65
2023-03-08T14:46:45.944Z,73.63
2023-03-08T14:48:59.136Z,73.89
2023-03-08T14:51:02.377Z,73.96
2023-03-08T14:53:03.889Z,73.73
2023-03-08T14:55:20.397Z,74.24
2023-03-08T14:57:23.728Z,74.24
2023-03-08T14:59:28.108Z,74.04
2023-03-08T15:01:32.004Z,74.13
2023-03-08T15:03:34.044Z,74.08
2023-03-08T15:05:36.964Z,73.99
2023-03-08T15:07:38.606Z,74.21
2023-03-08T15:09:40.717Z,74.00
2023-03-08T15:11:42.809Z,74.00
2023-03-08T15:13:44.494Z,74.13
2023-03-08T15:15:46.861Z,73.99
2023-03-08T15:17:52.443Z,74.10
2023-03-08T15:19:54.025Z,74.16
2023-03-08T15:21:56.992Z,74.18
2023-03-08T15:23:58.870Z,74.35
2023-03-08T15:26:00.545Z,74.26
2023-03-08T15:28:02.549Z,74.52
2023-03-08T15:30:05.012Z,74.74
2023-03-08T15:32:07.613Z,74.61
2023-03-08T15:34:09.304Z,74.89
2023-03-08T15:36:13.971Z,75.07
2023-03-08T15:38:18.985Z,75.10
2023-03-08T15:40:22.790Z,75.31
2023-03-08T15:42:24.339Z,75.65
2023-03-08T15:44:25.932Z,75.35
2023-03-08T15:46:27.667Z,75.70
2023-03-08T15:48:29.292Z,75.74
2023-03-08T15:50:32.021Z,75.78
2023-03-08T15:52:33.682Z,75.60
2023-03-08T15:54:36.557Z,75.46
2023-03-08T15:56:38.242Z,75.67
2023-03-08T15:58:39.872Z,75.70
2023-03-08T16:00:41.420Z,75.44
2023-03-08T16:02:43.242Z,75.40
2023-03-08T16:04:45.097Z,75.40
2023-03-08T16:06:46.700Z,75.23
2023-03-08T16:08:48.402Z,75.25
2023-03-08T16:10:51.998Z,75.11
2023-03-08T16:12:53.865Z,75.26
2023-03-08T16:14:55.889Z,75.23
2023-03-08T16:16:57.511Z,74.89
2023-03-08T16:18:59.159Z,75.47
2023-03-08T16:21:01.134Z,76.32
2023-03-08T16:23:02.767Z,76.05
2023-03-08T16:25:05.258Z,76.36
2023-03-08T16:27:08.447Z,76.25
2023-03-08T16:29:10.053Z,76.37
2023-03-08T16:31:12.132Z,75.96
2023-03-08T16:33:14.618Z,75.79
2023-03-08T16:35:17.225Z,75.59
2023-03-08T16:37:19.105Z,76.11
2023-03-08T16:39:21.528Z,75.48
2023-03-08T16:41:23.248Z,76.46
2023-03-08T16:43:32.257Z,76.47
2023-03-08T16:45:53.333Z,76.11
2023-03-08T16:47:54.955Z,75.52
2023-03-08T16:49:56.507Z,75.11
2023-03-08T16:51:58.330Z,75.11
2023-03-08T16:53:59.926Z,74.79
2023-03-08T16:56:01.565Z,74.34
2023-03-08T16:58:03.212Z,74.24
2023-03-08T17:00:08.112Z,73.56
2023-03-08T17:02:14.036Z,73.01
2023-03-08T17:04:16.110Z,72.90
2023-03-08T17:06:19.968Z,73.17
2023-03-08T17:08:21.535Z,73.10
2023-03-08T17:10:23.273Z,73.07
2023-03-08T17:12:25.432Z,72.54
2023-03-08T17:14:26.960Z,72.62
2023-03-08T17:16:31.757Z,72.14
2023-03-08T17:18:33.342Z,72.82
2023-03-08T17:20:35.812Z,72.64
2023-03-08T17:22:37.396Z,74.00
2023-03-08T17:24:38.994Z,73.62
2023-03-08T17:26:42.248Z,74.20
2023-03-08T17:28:44.244Z,74.05
2023-03-08T17:30:46.038Z,73.87
2023-03-08T17:32:48.946Z,73.83
2023-03-08T17:34:50.632Z,73.93
2023-03-08T17:36:52.610Z,73.93
2023-03-08T17:38:54.913Z,74.07
2023-03-08T17:40:56.527Z,73.81
2023-03-08T17:42:58.134Z,73.71
2023-03-08T17:44:59.777Z,73.70
2023-03-08T17:47:01.450Z,73.63
2023-03-08T17:49:04.348Z,73.65
2023-03-08T17:51:07.619Z,73.47
2023-03-08T17:53:09.245Z,73.57
2023-03-08T17:55:11.193Z,73.51
2023-03-08T17:57:12.743Z,73.86
2023-03-08T17:59:16.109Z,74.14
2023-03-08T18:01:19.786Z,74.11
2023-03-08T18:03:21.925Z,74.55
2023-03-08T18:05:24.912Z,74.08
2023-03-08T18:07:26.633Z,74.09
2023-03-08T18:09:28.180Z,74.15
2023-03-08T18:11:29.827Z,74.11
2023-03-08T18:13:31.420Z,74.04
2023-03-08T18:15:32.978Z,74.03
2023-03-08T18:17:34.586Z,74.20
2023-03-08T18:19:36.197Z,74.07
2023-03-08T18:21:41.453Z,74.10
2023-03-08T18:23:43.503Z,74.11
2023-03-08T18:25:45.082Z,73.84
2023-03-08T18:27:46.747Z,73.37
2023-03-08T18:29:48.420Z,73.49
2023-03-08T18:31:50.085Z,73.36
2023-03-08T18:33:54.216Z,73.19
2023-03-08T18:35:57.109Z,72.72
2023-03-08T18:38:00.864Z,73.14
2023-03-08T18:40:09.875Z,73.51
2023-03-08T18:42:11.504Z,73.61
2023-03-08T18:44:13.106Z,73.49
2023-03-08T18:46:14.723Z,73.85
2023-03-08T18:48:16.349Z,73.75
2023-03-08T18:50:19.245Z,73.92
2023-03-08T18:52:20.807Z,74.54
2023-03-08T18:54:23.765Z,74.61
2023-03-08T18:56:26.342Z,74.48
2023-03-08T18:58:28.636Z,74.73
2023-03-08T19:00:30.247Z,74.91
2023-03-08T19:02:31.921Z,74.89
2023-03-08T19:04:38.383Z,74.35
2023-03-08T19:06:40.031Z,74.75
2023-03-08T19:08:41.996Z,74.66
2023-03-08T19:10:45.009Z,74.42
2023-03-08T19:12:46.610Z,74.48
2023-03-08T19:14:48.218Z,74.48
2023-03-08T19:16:49.910Z,74.38
2023-03-08T19:18:54.070Z,74.66
2023-03-08T19:21:48.027Z,74.13
2023-03-08T19:23:49.730Z,74.31
2023-03-08T19:25:52.652Z,74.76
2023-03-08T19:30:50.778Z,74.76
2023-03-08T19:32:52.475Z,74.51
2023-03-08T19:34:54.726Z,75.06
2023-03-08T19:36:57.276Z,75.14
2023-03-08T19:38:58.833Z,75.05
2023-03-08T19:41:01.733Z,75.03
2023-03-08T19:43:03.542Z,75.21
2023-03-08T19:45:06.072Z,75.10
2023-03-08T19:47:07.749Z,74.57
2023-03-08T19:49:12.889Z,74.68
2023-03-08T19:51:15.034Z,74.67
2023-03-08T19:53:16.761Z,74.55
2023-03-08T19:55:18.388Z,74.78
2023-03-08T19:57:21.353Z,75.11
2023-03-08T19:59:23.670Z,74.58
2023-03-08T20:01:26.077Z,74.45
2023-03-08T20:03:27.680Z,74.27
2023-03-08T20:05:29.511Z,74.37
2023-03-08T20:07:31.046Z,74.57
2023-03-08T20:09:32.597Z,74.14
2023-03-08T20:11:34.764Z,74.26
2023-03-08T20:13:37.645Z,74.45
2023-03-08T20:15:39.239Z,74.37
2023-03-08T20:17:40.825Z,74.49
2023-03-08T20:19:42.738Z,74.07
2023-03-08T20:21:44.365Z,73.88
2023-03-08T20:23:46.252Z,73.81
2023-03-08T20:25:47.777Z,73.60
2023-03-08T20:27:49.389Z,73.18
2023-03-08T20:29:53.457Z,73.43
2023-03-08T20:31:55.172Z,73.24
2023-03-08T20:33:57.465Z,73.21
2023-03-08T20:36:00.131Z,73.41
2023-03-08T20:38:01.753Z,73.25
2023-03-08T20:40:03.845Z,73.16
2023-03-08T20:42:05.568Z,73.18
2023-03-08T20:44:07.163Z,73.20
2023-03-08T20:46:12.643Z,73.20
2023-03-08T20:48:14.229Z,73.56
2023-03-08T20:50:19.065Z,73.13
2023-03-08T20:52:20.690Z,73.20
2023-03-08T20:54:22.428Z,73.23
2023-03-08T20:56:25.609Z,73.12
2023-03-08T20:58:27.169Z,73.03
2023-03-08T21:00:28.806Z,73.06
2023-03-08T21:02:31.710Z,73.02
2023-03-08T21:04:33.615Z,72.93
2023-03-08T21:06:35.235Z,73.10
2023-03-08T21:11:33.456Z,73.18
2023-03-08T21:13:38.795Z,73.62
2023-03-08T21:15:40.406Z,73.71
2023-03-08T21:17:43.330Z,73.50
2023-03-08T21:19:44.947Z,73.71
2023-03-08T21:21:46.530Z,73.76
2023-03-08T21:23:48.225Z,73.70
2023-03-08T21:25:50.093Z,73.76
2023-03-08T21:27:51.851Z,73.87
2023-03-08T21:29:54.462Z,73.63
2023-03-08T21:31:56.113Z,74.18
2023-03-08T21:34:01.528Z,74.06
2023-03-08T21:36:03.168Z,74.06
2023-03-08T21:38:05.019Z,74.15
2023-03-08T21:40:07.722Z,74.21
2023-03-08T21:42:09.228Z,74.20
2023-03-08T21:44:14.288Z,73.83
2023-03-08T21:46:16.287Z,74.06
2023-03-08T21:48:17.898Z,73.79
2023-03-08T21:50:21.021Z,73.73
2023-03-08T21:52:25.116Z,73.70
2023-03-08T21:54:28.119Z,73.50
2023-03-08T21:56:29.924Z,73.51
2023-03-08T21:58:31.595Z,73.31
2023-03-08T22:00:33.266Z,73.21
2023-03-08T22:02:35.043Z,73.12
2023-03-08T22:04:38.222Z,73.25
2023-03-08T22:06:41.146Z,73.21
2023-03-08T22:08:42.960Z,73.47
2023-03-08T22:10:44.578Z,73.14
2023-03-08T22:12:46.175Z,73.16
2023-03-08T22:14:47.849Z,73.17
2023-03-08T22:16:49.532Z,73.56
2023-03-08T22:18:52.689Z,73.74
2023-03-08T22:20:54.283Z,74.05
2023-03-08T22:22:57.230Z,74.27
2023-03-08T22:24:58.948Z,74.27
2023-03-08T22:27:00.590Z,74.15
2023-03-08T22:29:02.480Z,74.16
2023-03-08T22:31:09.390Z,74.01
2023-03-08T22:33:11.042Z,73.99
2023-03-08T22:35:12.673Z,74.41
2023-03-08T22:37:14.237Z,74.48
2023-03-08T22:39:17.157Z,74.62
2023-03-08T22:41:20.324Z,74.69
2023-03-08T22:43:21.865Z,75.01
2023-03-08T22:45:23.413Z,74.78
2023-03-08T22:47:25.098Z,75.05
2023-03-08T22:49:26.665Z,74.89
2023-03-08T22:51:28.436Z,74.91
2023-03-08T22:53:30.133Z,74.63
2023-03-08T22:55:33.520Z,74.86
2023-03-08T22:57:36.409Z,74.39
2023-03-08T22:59:37.965Z,74.64
2023-03-08T23:01:39.782Z,74.51
2023-03-08T23:03:41.393Z,74.63
2023-03-08T23:05:43.094Z,74.57
2023-03-08T23:07:44.946Z,74.22
2023-03-08T23:09:46.559Z,74.10
2023-03-08T23:11:49.647Z,74.24
2023-03-08T23:13:51.335Z,74.28
2023-03-08T23:15:52.995Z,74.59
2023-03-08T23:17:54.551Z,74.62
2023-03-08T23:19:56.219Z,74.91
2023-03-08T23:21:57.867Z,74.91
2023-03-08T23:23:59.799Z,74.98
2023-03-08T23:26:03.447Z,76.79
2023-03-08T23:28:07.034Z,76.66
2023-03-08T23:30:12.809Z,77.72
2023-03-08T23:32:14.491Z,76.88
2023-03-08T23:34:16.147Z,76.49
2023-03-08T23:36:20.254Z,76.35
2023-03-08T23:38:21.786Z,79.85
2023-03-08T23:40:23.384Z,78.24
2023-03-08T23:42:24.982Z,77.49
2023-03-08T23:44:28.079Z,77.51
2023-03-08T23:46:30.104Z,77.87
2023-03-08T23:48:31.621Z,77.92
2023-03-08T23:50:33.435Z,78.07
2023-03-08T23:52:35.048Z,77.86
2023-03-08T23:54:36.609Z,78.21
2023-03-08T23:56:40.130Z,78.42
2023-03-08T23:58:41.724Z,79.06
